sensor_id;sensor_type;location;lat;lon;timestamp;temperature;humidity
5554;DHT22;2800;49.528;8.666;2023-09-12T00:00:41;20.70;99.90
5554;DHT22;2800;49.528;8.666;2023-09-12T00:03:08;20.70;99.90
5554;DHT22;2800;49.528;8.666;2023-09-12T00:05:33;20.70;99.90
5554;DHT22;2800;49.528;8.666;2023-09-12T00:07:59;20.70;99.90
5554;DHT22;2800;49.528;8.666;2023-09-12T00:10:24;20.70;99.90
5554;DHT22;2800;49.528;8.666;2023-09-12T00:12:51;20.70;99.90
5554;DHT22;2800;49.528;8.666;2023-09-12T00:15:16;20.60;99.90
5554;DHT22;2800;49.528;8.666;2023-09-12T00:17:42;20.50;99.90
5554;DHT22;2800;49.528;8.666;2023-09-12T00:20:08;20.40;99.90
5554;DHT22;2800;49.528;8.666;2023-09-12T00:22:33;20.40;99.90
5554;DHT22;2800;49.528;8.666;2023-09-12T00:24:59;20.40;99.90
5554;DHT22;2800;49.528;8.666;2023-09-12T00:27:24;20.40;99.90
5554;DHT22;2800;49.528;8.666;2023-09-12T00:29:50;20.40;99.90
5554;DHT22;2800;49.528;8.666;2023-09-12T00:32:15;20.40;99.90
5554;DHT22;2800;49.528;8.666;2023-09-12T00:34:41;20.30;99.90
5554;DHT22;2800;49.528;8.666;2023-09-12T00:37:06;20.20;99.90
5554;DHT22;2800;49.528;8.666;2023-09-12T00:39:32;20.20;99.90
5554;DHT22;2800;49.528;8.666;2023-09-12T00:41:57;20.20;99.90
5554;DHT22;2800;49.528;8.666;2023-09-12T00:44:23;20.30;99.90
5554;DHT22;2800;49.528;8.666;2023-09-12T00:46:49;20.10;99.90
5554;DHT22;2800;49.528;8.666;2023-09-12T00:49:16;20.30;99.90
5554;DHT22;2800;49.528;8.666;2023-09-12T00:51:43;20.20;99.90
5554;DHT22;2800;49.528;8.666;2023-09-12T00:54:10;20.10;99.90
5554;DHT22;2800;49.528;8.666;2023-09-12T00:56:36;20.00;99.90
5554;DHT22;2800;49.528;8.666;2023-09-12T00:59:02;19.90;99.90
5554;DHT22;2800;49.528;8.666;2023-09-12T01:01:29;19.80;99.90
5554;DHT22;2800;49.528;8.666;2023-09-12T01:03:56;19.70;99.90
5554;DHT22;2800;49.528;8.666;2023-09-12T01:06:25;19.70;99.90
5554;DHT22;2800;49.528;8.666;2023-09-12T01:08:53;19.60;99.90
5554;DHT22;2800;49.528;8.666;2023-09-12T01:11:20;19.70;99.90
5554;DHT22;2800;49.528;8.666;2023-09-12T01:13:45;19.70;99.90
5554;DHT22;2800;49.528;8.666;2023-09-12T01:16:11;19.60;99.90
5554;DHT22;2800;49.528;8.666;2023-09-12T01:18:36;19.60;99.90
5554;DHT22;2800;49.528;8.666;2023-09-12T01:24:11;19.50;99.90
5554;DHT22;2800;49.528;8.666;2023-09-12T01:29:39;19.50;99.90
5554;DHT22;2800;49.528;8.666;2023-09-12T01:32:05;19.50;99.90
5554;DHT22;2800;49.528;8.666;2023-09-12T01:34:31;19.30;99.90
5554;DHT22;2800;49.528;8.666;2023-09-12T01:36:56;19.30;99.90
5554;DHT22;2800;49.528;8.666;2023-09-12T01:39:22;19.40;99.90
5554;DHT22;2800;49.528;8.666;2023-09-12T01:41:48;19.60;99.90
5554;DHT22;2800;49.528;8.666;2023-09-12T01:44:15;19.80;99.90
5554;DHT22;2800;49.528;8.666;2023-09-12T01:46:43;19.80;99.90
5554;DHT22;2800;49.528;8.666;2023-09-12T01:49:10;19.90;99.90
5554;DHT22;2800;49.528;8.666;2023-09-12T01:51:36;19.90;99.90
5554;DHT22;2800;49.528;8.666;2023-09-12T01:54:03;19.90;99.90
5554;DHT22;2800;49.528;8.666;2023-09-12T01:56:30;20.10;99.90
5554;DHT22;2800;49.528;8.666;2023-09-12T01:58:56;20.30;99.90
5554;DHT22;2800;49.528;8.666;2023-09-12T02:01:22;20.50;99.90
5554;DHT22;2800;49.528;8.666;2023-09-12T02:03:47;20.60;99.90
5554;DHT22;2800;49.528;8.666;2023-09-12T02:06:13;20.50;99.90
5554;DHT22;2800;49.528;8.666;2023-09-12T02:08:38;20.40;99.90
5554;DHT22;2800;49.528;8.666;2023-09-12T02:11:04;20.40;99.90
5554;DHT22;2800;49.528;8.666;2023-09-12T02:13:29;20.20;99.90
5554;DHT22;2800;49.528;8.666;2023-09-12T02:16:01;20.10;99.90
5554;DHT22;2800;49.528;8.666;2023-09-12T02:18:28;20.00;99.90
5554;DHT22;2800;49.528;8.666;2023-09-12T02:20:54;20.00;99.90
5554;DHT22;2800;49.528;8.666;2023-09-12T02:23:19;20.00;99.90
5554;DHT22;2800;49.528;8.666;2023-09-12T02:25:45;20.20;99.90
5554;DHT22;2800;49.528;8.666;2023-09-12T02:28:10;20.40;99.90
5554;DHT22;2800;49.528;8.666;2023-09-12T02:30:38;20.30;99.90
5554;DHT22;2800;49.528;8.666;2023-09-12T02:33:05;20.20;99.90
5554;DHT22;2800;49.528;8.666;2023-09-12T02:35:31;20.10;99.90
5554;DHT22;2800;49.528;8.666;2023-09-12T02:37:56;20.10;99.90
5554;DHT22;2800;49.528;8.666;2023-09-12T02:40:22;20.20;99.90
5554;DHT22;2800;49.528;8.666;2023-09-12T02:42:48;20.30;99.90
5554;DHT22;2800;49.528;8.666;2023-09-12T02:45:13;20.40;99.90
5554;DHT22;2800;49.528;8.666;2023-09-12T02:47:39;20.30;99.90
5554;DHT22;2800;49.528;8.666;2023-09-12T02:50:04;20.30;99.90
5554;DHT22;2800;49.528;8.666;2023-09-12T02:52:30;20.40;99.90
5554;DHT22;2800;49.528;8.666;2023-09-12T02:54:56;20.50;99.90
5554;DHT22;2800;49.528;8.666;2023-09-12T02:57:21;20.50;99.90
5554;DHT22;2800;49.528;8.666;2023-09-12T02:59:47;20.60;99.90
5554;DHT22;2800;49.528;8.666;2023-09-12T03:02:12;20.70;99.90
5554;DHT22;2800;49.528;8.666;2023-09-12T03:04:38;21.00;99.90
5554;DHT22;2800;49.528;8.666;2023-09-12T03:07:03;21.30;99.90
5554;DHT22;2800;49.528;8.666;2023-09-12T03:09:29;21.40;99.90
5554;DHT22;2800;49.528;8.666;2023-09-12T03:11:54;21.20;99.90
5554;DHT22;2800;49.528;8.666;2023-09-12T03:14:20;21.10;99.90
5554;DHT22;2800;49.528;8.666;2023-09-12T03:16:45;20.90;99.90
5554;DHT22;2800;49.528;8.666;2023-09-12T03:19:11;20.80;99.90
5554;DHT22;2800;49.528;8.666;2023-09-12T03:21:36;20.90;99.90
5554;DHT22;2800;49.528;8.666;2023-09-12T03:24:02;20.90;99.90
5554;DHT22;2800;49.528;8.666;2023-09-12T03:26:28;21.00;99.90
5554;DHT22;2800;49.528;8.666;2023-09-12T03:28:53;21.20;99.90
5554;DHT22;2800;49.528;8.666;2023-09-12T03:31:19;21.60;99.90
5554;DHT22;2800;49.528;8.666;2023-09-12T03:33:44;21.50;99.90
5554;DHT22;2800;49.528;8.666;2023-09-12T03:36:15;21.30;99.90
5554;DHT22;2800;49.528;8.666;2023-09-12T03:38:41;21.10;99.90
5554;DHT22;2800;49.528;8.666;2023-09-12T03:41:06;21.00;99.90
5554;DHT22;2800;49.528;8.666;2023-09-12T03:43:33;20.80;99.90
5554;DHT22;2800;49.528;8.666;2023-09-12T03:45:59;20.70;99.90
5554;DHT22;2800;49.528;8.666;2023-09-12T03:48:24;20.60;99.90
5554;DHT22;2800;49.528;8.666;2023-09-12T03:50:50;20.40;99.90
5554;DHT22;2800;49.528;8.666;2023-09-12T03:53:16;20.30;99.90
5554;DHT22;2800;49.528;8.666;2023-09-12T03:55:42;20.30;99.90
5554;DHT22;2800;49.528;8.666;2023-09-12T03:58:08;20.30;99.90
5554;DHT22;2800;49.528;8.666;2023-09-12T04:00:33;20.30;99.90
5554;DHT22;2800;49.528;8.666;2023-09-12T04:02:59;20.30;99.90
5554;DHT22;2800;49.528;8.666;2023-09-12T04:05:25;20.20;99.90
5554;DHT22;2800;49.528;8.666;2023-09-12T04:07:51;20.10;99.90
5554;DHT22;2800;49.528;8.666;2023-09-12T04:10:18;20.00;99.90
5554;DHT22;2800;49.528;8.666;2023-09-12T04:12:44;20.00;99.90
5554;DHT22;2800;49.528;8.666;2023-09-12T04:15:09;20.00;99.90
5554;DHT22;2800;49.528;8.666;2023-09-12T04:17:35;19.90;99.90
5554;DHT22;2800;49.528;8.666;2023-09-12T04:20:00;19.80;99.90
5554;DHT22;2800;49.528;8.666;2023-09-12T04:22:26;19.70;99.90
5554;DHT22;2800;49.528;8.666;2023-09-12T04:24:51;19.70;99.90
5554;DHT22;2800;49.528;8.666;2023-09-12T04:27:17;19.70;99.90
5554;DHT22;2800;49.528;8.666;2023-09-12T04:29:42;19.50;99.90
5554;DHT22;2800;49.528;8.666;2023-09-12T04:32:08;19.50;99.90
5554;DHT22;2800;49.528;8.666;2023-09-12T04:34:33;19.50;99.90
5554;DHT22;2800;49.528;8.666;2023-09-12T04:36:59;19.40;99.90
5554;DHT22;2800;49.528;8.666;2023-09-12T04:39:24;19.40;99.90
5554;DHT22;2800;49.528;8.666;2023-09-12T04:41:50;19.50;99.90
5554;DHT22;2800;49.528;8.666;2023-09-12T04:44:15;19.60;99.90
5554;DHT22;2800;49.528;8.666;2023-09-12T04:46:41;19.70;99.90
5554;DHT22;2800;49.528;8.666;2023-09-12T04:49:06;19.70;99.90
5554;DHT22;2800;49.528;8.666;2023-09-12T04:51:32;19.70;99.90
5554;DHT22;2800;49.528;8.666;2023-09-12T04:53:57;19.60;99.90
5554;DHT22;2800;49.528;8.666;2023-09-12T04:56:23;19.60;99.90
5554;DHT22;2800;49.528;8.666;2023-09-12T04:58:51;19.70;99.90
5554;DHT22;2800;49.528;8.666;2023-09-12T05:01:17;19.70;99.90
5554;DHT22;2800;49.528;8.666;2023-09-12T05:03:43;19.70;99.90
5554;DHT22;2800;49.528;8.666;2023-09-12T05:06:09;19.70;99.90
5554;DHT22;2800;49.528;8.666;2023-09-12T05:08:35;19.70;99.90
5554;DHT22;2800;49.528;8.666;2023-09-12T05:11:01;19.70;99.90
5554;DHT22;2800;49.528;8.666;2023-09-12T05:13:28;19.70;99.90
5554;DHT22;2800;49.528;8.666;2023-09-12T05:15:54;19.60;99.90
5554;DHT22;2800;49.528;8.666;2023-09-12T05:18:19;19.40;99.90
5554;DHT22;2800;49.528;8.666;2023-09-12T05:20:45;19.40;99.90
5554;DHT22;2800;49.528;8.666;2023-09-12T05:23:10;19.40;99.90
5554;DHT22;2800;49.528;8.666;2023-09-12T05:25:36;19.40;99.90
5554;DHT22;2800;49.528;8.666;2023-09-12T05:28:01;19.40;99.90
5554;DHT22;2800;49.528;8.666;2023-09-12T05:30:28;19.30;99.90
5554;DHT22;2800;49.528;8.666;2023-09-12T05:32:53;19.30;99.90
5554;DHT22;2800;49.528;8.666;2023-09-12T05:35:19;19.40;99.90
5554;DHT22;2800;49.528;8.666;2023-09-12T05:37:44;19.40;99.90
5554;DHT22;2800;49.528;8.666;2023-09-12T05:40:10;19.50;99.90
5554;DHT22;2800;49.528;8.666;2023-09-12T05:42:36;19.60;99.90
5554;DHT22;2800;49.528;8.666;2023-09-12T05:45:01;19.70;99.90
5554;DHT22;2800;49.528;8.666;2023-09-12T05:47:27;19.80;99.90
5554;DHT22;2800;49.528;8.666;2023-09-12T05:49:53;19.60;99.90
5554;DHT22;2800;49.528;8.666;2023-09-12T05:52:19;19.60;99.90
5554;DHT22;2800;49.528;8.666;2023-09-12T05:54:44;19.50;99.90
5554;DHT22;2800;49.528;8.666;2023-09-12T05:57:10;19.60;99.90
5554;DHT22;2800;49.528;8.666;2023-09-12T05:59:37;19.60;99.90
5554;DHT22;2800;49.528;8.666;2023-09-12T06:02:07;19.60;99.90
5554;DHT22;2800;49.528;8.666;2023-09-12T06:04:35;19.50;99.90
5554;DHT22;2800;49.528;8.666;2023-09-12T06:07:02;19.50;99.90
5554;DHT22;2800;49.528;8.666;2023-09-12T06:09:28;19.40;99.90
5554;DHT22;2800;49.528;8.666;2023-09-12T06:11:54;19.50;99.90
5554;DHT22;2800;49.528;8.666;2023-09-12T06:14:20;19.40;99.90
5554;DHT22;2800;49.528;8.666;2023-09-12T06:16:45;19.50;99.90
5554;DHT22;2800;49.528;8.666;2023-09-12T06:19:11;19.60;99.90
5554;DHT22;2800;49.528;8.666;2023-09-12T06:21:36;19.80;99.90
5554;DHT22;2800;49.528;8.666;2023-09-12T06:26:41;20.10;99.90
5554;DHT22;2800;49.528;8.666;2023-09-12T06:29:07;20.40;99.90
5554;DHT22;2800;49.528;8.666;2023-09-12T06:31:33;20.60;99.90
5554;DHT22;2800;49.528;8.666;2023-09-12T06:33:59;20.70;99.90
5554;DHT22;2800;49.528;8.666;2023-09-12T06:36:25;20.80;99.90
5554;DHT22;2800;49.528;8.666;2023-09-12T06:38:51;20.70;99.90
5554;DHT22;2800;49.528;8.666;2023-09-12T06:41:20;20.70;99.90
5554;DHT22;2800;49.528;8.666;2023-09-12T06:43:46;20.70;99.90
5554;DHT22;2800;49.528;8.666;2023-09-12T06:46:11;20.90;99.90
5554;DHT22;2800;49.528;8.666;2023-09-12T06:48:37;21.10;99.90
5554;DHT22;2800;49.528;8.666;2023-09-12T06:51:07;21.30;99.90
5554;DHT22;2800;49.528;8.666;2023-09-12T06:53:33;20.80;99.90
5554;DHT22;2800;49.528;8.666;2023-09-12T06:55:59;22.10;99.90
5554;DHT22;2800;49.528;8.666;2023-09-12T06:58:25;22.40;99.90
5554;DHT22;2800;49.528;8.666;2023-09-12T07:00:50;22.40;99.90
5554;DHT22;2800;49.528;8.666;2023-09-12T07:03:16;22.40;99.90
5554;DHT22;2800;49.528;8.666;2023-09-12T07:05:42;22.40;99.90
5554;DHT22;2800;49.528;8.666;2023-09-12T07:08:07;22.50;99.90
5554;DHT22;2800;49.528;8.666;2023-09-12T07:10:34;22.80;99.90
5554;DHT22;2800;49.528;8.666;2023-09-12T07:12:59;22.80;99.90
5554;DHT22;2800;49.528;8.666;2023-09-12T07:15:25;22.90;99.90
5554;DHT22;2800;49.528;8.666;2023-09-12T07:17:50;22.80;99.90
5554;DHT22;2800;49.528;8.666;2023-09-12T07:20:16;23.10;99.90
5554;DHT22;2800;49.528;8.666;2023-09-12T07:22:43;23.00;99.90
5554;DHT22;2800;49.528;8.666;2023-09-12T07:25:09;23.10;99.90
5554;DHT22;2800;49.528;8.666;2023-09-12T07:27:37;23.10;99.90
5554;DHT22;2800;49.528;8.666;2023-09-12T07:30:04;23.50;99.90
5554;DHT22;2800;49.528;8.666;2023-09-12T07:32:29;24.10;99.90
5554;DHT22;2800;49.528;8.666;2023-09-12T07:34:55;24.70;99.90
5554;DHT22;2800;49.528;8.666;2023-09-12T07:37:20;25.10;99.90
5554;DHT22;2800;49.528;8.666;2023-09-12T07:39:46;24.70;99.90
5554;DHT22;2800;49.528;8.666;2023-09-12T07:42:11;24.40;99.90
5554;DHT22;2800;49.528;8.666;2023-09-12T07:44:37;24.70;99.90
5554;DHT22;2800;49.528;8.666;2023-09-12T07:47:03;25.00;99.90
5554;DHT22;2800;49.528;8.666;2023-09-12T07:49:29;25.30;99.90
5554;DHT22;2800;49.528;8.666;2023-09-12T07:51:54;25.50;99.90
5554;DHT22;2800;49.528;8.666;2023-09-12T07:54:22;25.60;99.90
5554;DHT22;2800;49.528;8.666;2023-09-12T07:56:48;25.80;99.90
5554;DHT22;2800;49.528;8.666;2023-09-12T07:59:13;26.00;99.90
5554;DHT22;2800;49.528;8.666;2023-09-12T08:01:40;26.00;99.90
5554;DHT22;2800;49.528;8.666;2023-09-12T08:04:06;25.90;99.90
5554;DHT22;2800;49.528;8.666;2023-09-12T08:06:32;26.10;99.90
5554;DHT22;2800;49.528;8.666;2023-09-12T08:08:58;25.70;99.90
5554;DHT22;2800;49.528;8.666;2023-09-12T08:11:24;25.50;99.90
5554;DHT22;2800;49.528;8.666;2023-09-12T08:13:50;26.00;99.90
5554;DHT22;2800;49.528;8.666;2023-09-12T08:16:16;26.00;99.90
5554;DHT22;2800;49.528;8.666;2023-09-12T08:18:41;26.10;99.90
5554;DHT22;2800;49.528;8.666;2023-09-12T08:21:07;26.60;99.90
5554;DHT22;2800;49.528;8.666;2023-09-12T08:23:33;26.50;99.90
5554;DHT22;2800;49.528;8.666;2023-09-12T08:25:58;25.60;99.90
5554;DHT22;2800;49.528;8.666;2023-09-12T08:28:24;25.80;99.90
5554;DHT22;2800;49.528;8.666;2023-09-12T08:30:49;26.50;99.90
5554;DHT22;2800;49.528;8.666;2023-09-12T08:33:15;26.00;99.90
5554;DHT22;2800;49.528;8.666;2023-09-12T08:35:40;26.20;99.90
5554;DHT22;2800;49.528;8.666;2023-09-12T08:38:06;26.40;99.90
5554;DHT22;2800;49.528;8.666;2023-09-12T08:40:35;27.10;99.90
5554;DHT22;2800;49.528;8.666;2023-09-12T08:43:01;27.70;99.90
5554;DHT22;2800;49.528;8.666;2023-09-12T08:45:29;28.00;99.90
5554;DHT22;2800;49.528;8.666;2023-09-12T08:47:56;28.70;99.90
5554;DHT22;2800;49.528;8.666;2023-09-12T08:50:23;28.50;99.90
5554;DHT22;2800;49.528;8.666;2023-09-12T08:52:50;28.10;99.90
5554;DHT22;2800;49.528;8.666;2023-09-12T08:55:16;27.90;99.90
5554;DHT22;2800;49.528;8.666;2023-09-12T08:57:42;28.20;99.90
5554;DHT22;2800;49.528;8.666;2023-09-12T09:00:09;28.60;99.90
5554;DHT22;2800;49.528;8.666;2023-09-12T09:02:39;28.60;99.90
5554;DHT22;2800;49.528;8.666;2023-09-12T09:05:06;28.90;99.90
5554;DHT22;2800;49.528;8.666;2023-09-12T09:07:38;27.70;99.90
5554;DHT22;2800;49.528;8.666;2023-09-12T09:10:05;27.70;99.90
5554;DHT22;2800;49.528;8.666;2023-09-12T09:12:32;27.80;99.90
5554;DHT22;2800;49.528;8.666;2023-09-12T09:14:58;28.00;99.90
5554;DHT22;2800;49.528;8.666;2023-09-12T09:17:23;27.90;99.90
5554;DHT22;2800;49.528;8.666;2023-09-12T09:19:49;27.50;99.90
5554;DHT22;2800;49.528;8.666;2023-09-12T09:22:15;28.10;99.90
5554;DHT22;2800;49.528;8.666;2023-09-12T09:24:40;28.50;99.90
5554;DHT22;2800;49.528;8.666;2023-09-12T09:27:06;28.60;99.90
5554;DHT22;2800;49.528;8.666;2023-09-12T09:29:31;28.70;99.90
5554;DHT22;2800;49.528;8.666;2023-09-12T09:32:00;28.80;99.90
5554;DHT22;2800;49.528;8.666;2023-09-12T09:34:26;28.50;99.90
5554;DHT22;2800;49.528;8.666;2023-09-12T09:36:57;28.90;99.90
5554;DHT22;2800;49.528;8.666;2023-09-12T09:39:24;29.60;99.90
5554;DHT22;2800;49.528;8.666;2023-09-12T09:41:52;28.10;99.90
5554;DHT22;2800;49.528;8.666;2023-09-12T09:44:20;27.90;99.90
5554;DHT22;2800;49.528;8.666;2023-09-12T09:46:46;28.40;99.90
5554;DHT22;2800;49.528;8.666;2023-09-12T09:49:17;28.10;99.90
5554;DHT22;2800;49.528;8.666;2023-09-12T09:51:44;28.60;99.90
5554;DHT22;2800;49.528;8.666;2023-09-12T09:54:11;29.40;99.90
5554;DHT22;2800;49.528;8.666;2023-09-12T09:56:49;29.60;99.90
5554;DHT22;2800;49.528;8.666;2023-09-12T09:59:16;29.40;99.90
5554;DHT22;2800;49.528;8.666;2023-09-12T10:01:44;29.10;99.90
5554;DHT22;2800;49.528;8.666;2023-09-12T10:04:11;29.40;99.90
5554;DHT22;2800;49.528;8.666;2023-09-12T10:06:37;29.30;99.90
5554;DHT22;2800;49.528;8.666;2023-09-12T10:09:11;29.30;99.90
5554;DHT22;2800;49.528;8.666;2023-09-12T10:11:38;29.90;99.90
5554;DHT22;2800;49.528;8.666;2023-09-12T10:14:05;30.30;99.90
5554;DHT22;2800;49.528;8.666;2023-09-12T10:16:32;29.00;99.90
5554;DHT22;2800;49.528;8.666;2023-09-12T10:19:15;29.60;99.90
5554;DHT22;2800;49.528;8.666;2023-09-12T10:21:53;30.00;99.90
5554;DHT22;2800;49.528;8.666;2023-09-12T10:24:21;29.60;99.90
5554;DHT22;2800;49.528;8.666;2023-09-12T10:26:50;29.80;99.90
5554;DHT22;2800;49.528;8.666;2023-09-12T10:29:16;29.50;99.90
5554;DHT22;2800;49.528;8.666;2023-09-12T10:31:41;29.50;99.90
5554;DHT22;2800;49.528;8.666;2023-09-12T10:34:08;28.40;99.90
5554;DHT22;2800;49.528;8.666;2023-09-12T10:36:38;28.50;99.90
5554;DHT22;2800;49.528;8.666;2023-09-12T10:39:04;29.00;99.90
5554;DHT22;2800;49.528;8.666;2023-09-12T10:41:32;28.90;99.90
5554;DHT22;2800;49.528;8.666;2023-09-12T10:43:59;29.50;99.90
5554;DHT22;2800;49.528;8.666;2023-09-12T10:46:25;30.30;99.90
5554;DHT22;2800;49.528;8.666;2023-09-12T10:48:51;30.80;99.90
5554;DHT22;2800;49.528;8.666;2023-09-12T10:51:18;31.00;99.90
5554;DHT22;2800;49.528;8.666;2023-09-12T10:53:49;31.30;99.90
5554;DHT22;2800;49.528;8.666;2023-09-12T10:56:17;31.10;99.90
5554;DHT22;2800;49.528;8.666;2023-09-12T11:01:30;30.00;99.90
5554;DHT22;2800;49.528;8.666;2023-09-12T11:03:57;30.20;99.90
5554;DHT22;2800;49.528;8.666;2023-09-12T11:06:28;28.30;99.90
5554;DHT22;2800;49.528;8.666;2023-09-12T11:11:38;28.10;99.90
5554;DHT22;2800;49.528;8.666;2023-09-12T11:14:05;28.00;99.90
5554;DHT22;2800;49.528;8.666;2023-09-12T11:16:31;28.10;99.90
5554;DHT22;2800;49.528;8.666;2023-09-12T11:19:16;27.90;99.90
5554;DHT22;2800;49.528;8.666;2023-09-12T11:21:48;28.30;99.90
5554;DHT22;2800;49.528;8.666;2023-09-12T11:24:15;28.40;99.90
5554;DHT22;2800;49.528;8.666;2023-09-12T11:27:01;28.90;99.90
5554;DHT22;2800;49.528;8.666;2023-09-12T11:29:36;29.80;99.90
5554;DHT22;2800;49.528;8.666;2023-09-12T11:32:02;30.70;99.90
5554;DHT22;2800;49.528;8.666;2023-09-12T11:34:35;31.10;99.90
5554;DHT22;2800;49.528;8.666;2023-09-12T11:37:01;31.80;99.90
5554;DHT22;2800;49.528;8.666;2023-09-12T11:39:30;31.00;99.90
5554;DHT22;2800;49.528;8.666;2023-09-12T11:41:58;31.50;99.90
5554;DHT22;2800;49.528;8.666;2023-09-12T11:44:24;31.10;99.90
5554;DHT22;2800;49.528;8.666;2023-09-12T11:46:52;31.30;99.90
5554;DHT22;2800;49.528;8.666;2023-09-12T11:49:19;31.50;99.90
5554;DHT22;2800;49.528;8.666;2023-09-12T11:51:53;31.50;99.90
5554;DHT22;2800;49.528;8.666;2023-09-12T11:54:20;32.40;99.90
5554;DHT22;2800;49.528;8.666;2023-09-12T11:56:49;32.60;99.90
5554;DHT22;2800;49.528;8.666;2023-09-12T11:59:22;33.50;99.90
5554;DHT22;2800;49.528;8.666;2023-09-12T12:01:48;33.30;99.90
5554;DHT22;2800;49.528;8.666;2023-09-12T12:04:14;33.40;99.90
5554;DHT22;2800;49.528;8.666;2023-09-12T12:06:40;33.70;99.90
5554;DHT22;2800;49.528;8.666;2023-09-12T12:09:06;34.10;99.90
5554;DHT22;2800;49.528;8.666;2023-09-12T12:11:32;34.60;99.90
5554;DHT22;2800;49.528;8.666;2023-09-12T12:13:57;34.40;99.90
5554;DHT22;2800;49.528;8.666;2023-09-12T12:16:25;33.70;99.90
5554;DHT22;2800;49.528;8.666;2023-09-12T12:18:51;34.60;99.90
5554;DHT22;2800;49.528;8.666;2023-09-12T12:21:21;34.50;99.90
5554;DHT22;2800;49.528;8.666;2023-09-12T12:23:46;34.30;99.90
5554;DHT22;2800;49.528;8.666;2023-09-12T12:26:22;33.80;99.90
5554;DHT22;2800;49.528;8.666;2023-09-12T12:28:49;34.20;99.90
5554;DHT22;2800;49.528;8.666;2023-09-12T12:31:15;35.20;99.90
5554;DHT22;2800;49.528;8.666;2023-09-12T12:33:40;36.10;99.90
5554;DHT22;2800;49.528;8.666;2023-09-12T12:36:12;36.60;99.90
5554;DHT22;2800;49.528;8.666;2023-09-12T12:38:38;36.80;99.90
5554;DHT22;2800;49.528;8.666;2023-09-12T12:41:05;36.20;99.90
5554;DHT22;2800;49.528;8.666;2023-09-12T12:43:30;34.20;99.90
5554;DHT22;2800;49.528;8.666;2023-09-12T12:45:58;34.60;99.90
5554;DHT22;2800;49.528;8.666;2023-09-12T12:48:36;32.70;99.90
5554;DHT22;2800;49.528;8.666;2023-09-12T12:51:19;34.10;99.90
5554;DHT22;2800;49.528;8.666;2023-09-12T12:53:47;35.20;99.90
5554;DHT22;2800;49.528;8.666;2023-09-12T12:56:26;35.90;99.90
5554;DHT22;2800;49.528;8.666;2023-09-12T12:58:55;34.10;99.90
5554;DHT22;2800;49.528;8.666;2023-09-12T13:01:21;35.20;99.90
5554;DHT22;2800;49.528;8.666;2023-09-12T13:03:47;36.30;99.90
5554;DHT22;2800;49.528;8.666;2023-09-12T13:06:14;36.90;99.90
5554;DHT22;2800;49.528;8.666;2023-09-12T13:08:41;38.20;99.90
5554;DHT22;2800;49.528;8.666;2023-09-12T13:11:08;37.90;99.90
5554;DHT22;2800;49.528;8.666;2023-09-12T13:13:33;37.10;99.90
5554;DHT22;2800;49.528;8.666;2023-09-12T13:15:59;37.40;99.90
5554;DHT22;2800;49.528;8.666;2023-09-12T13:18:26;35.50;99.90
5554;DHT22;2800;49.528;8.666;2023-09-12T13:20:51;36.50;99.90
5554;DHT22;2800;49.528;8.666;2023-09-12T13:23:17;35.60;99.90
5554;DHT22;2800;49.528;8.666;2023-09-12T13:25:43;37.10;99.90
5554;DHT22;2800;49.528;8.666;2023-09-12T13:28:08;38.20;99.90
5554;DHT22;2800;49.528;8.666;2023-09-12T13:30:34;39.00;99.90
5554;DHT22;2800;49.528;8.666;2023-09-12T13:32:59;37.80;99.90
5554;DHT22;2800;49.528;8.666;2023-09-12T13:35:25;38.10;99.90
5554;DHT22;2800;49.528;8.666;2023-09-12T13:37:50;38.00;99.90
5554;DHT22;2800;49.528;8.666;2023-09-12T13:40:16;37.40;99.90
5554;DHT22;2800;49.528;8.666;2023-09-12T13:42:41;38.20;99.90
5554;DHT22;2800;49.528;8.666;2023-09-12T13:45:07;38.90;99.90
5554;DHT22;2800;49.528;8.666;2023-09-12T13:47:33;38.80;99.90
5554;DHT22;2800;49.528;8.666;2023-09-12T13:49:58;39.30;99.90
5554;DHT22;2800;49.528;8.666;2023-09-12T13:52:26;39.70;99.90
5554;DHT22;2800;49.528;8.666;2023-09-12T13:54:53;40.00;99.90
5554;DHT22;2800;49.528;8.666;2023-09-12T13:57:18;40.10;99.90
5554;DHT22;2800;49.528;8.666;2023-09-12T13:59:44;39.00;99.90
5554;DHT22;2800;49.528;8.666;2023-09-12T14:02:10;38.10;99.90
5554;DHT22;2800;49.528;8.666;2023-09-12T14:04:35;39.10;99.90
5554;DHT22;2800;49.528;8.666;2023-09-12T14:07:01;38.00;99.90
5554;DHT22;2800;49.528;8.666;2023-09-12T14:09:28;38.70;99.90
5554;DHT22;2800;49.528;8.666;2023-09-12T14:11:53;38.30;99.90
5554;DHT22;2800;49.528;8.666;2023-09-12T14:14:18;38.50;99.90
5554;DHT22;2800;49.528;8.666;2023-09-12T14:16:45;38.10;99.90
5554;DHT22;2800;49.528;8.666;2023-09-12T14:19:11;38.30;99.90
5554;DHT22;2800;49.528;8.666;2023-09-12T14:21:36;38.40;99.90
5554;DHT22;2800;49.528;8.666;2023-09-12T14:24:02;38.50;99.90
5554;DHT22;2800;49.528;8.666;2023-09-12T14:26:28;38.20;99.90
5554;DHT22;2800;49.528;8.666;2023-09-12T14:28:54;38.70;99.90
5554;DHT22;2800;49.528;8.666;2023-09-12T14:31:21;38.90;99.90
5554;DHT22;2800;49.528;8.666;2023-09-12T14:33:48;38.80;99.90
5554;DHT22;2800;49.528;8.666;2023-09-12T14:36:14;38.70;99.90
5554;DHT22;2800;49.528;8.666;2023-09-12T14:38:39;38.50;99.90
5554;DHT22;2800;49.528;8.666;2023-09-12T14:41:05;38.60;99.90
5554;DHT22;2800;49.528;8.666;2023-09-12T14:43:30;38.50;99.90
5554;DHT22;2800;49.528;8.666;2023-09-12T14:45:56;38.90;99.90
5554;DHT22;2800;49.528;8.666;2023-09-12T14:48:22;38.60;99.90
5554;DHT22;2800;49.528;8.666;2023-09-12T14:50:47;39.40;99.90
5554;DHT22;2800;49.528;8.666;2023-09-12T14:53:16;38.80;99.90
5554;DHT22;2800;49.528;8.666;2023-09-12T14:55:42;38.50;99.90
5554;DHT22;2800;49.528;8.666;2023-09-12T14:58:08;38.40;99.90
5554;DHT22;2800;49.528;8.666;2023-09-12T15:00:33;38.60;99.90
5554;DHT22;2800;49.528;8.666;2023-09-12T15:03:03;38.70;99.90
5554;DHT22;2800;49.528;8.666;2023-09-12T15:05:28;38.40;99.90
5554;DHT22;2800;49.528;8.666;2023-09-12T15:07:54;37.20;99.90
5554;DHT22;2800;49.528;8.666;2023-09-12T15:10:19;36.10;99.90
5554;DHT22;2800;49.528;8.666;2023-09-12T15:12:45;35.40;99.90
5554;DHT22;2800;49.528;8.666;2023-09-12T15:15:11;34.70;99.90
5554;DHT22;2800;49.528;8.666;2023-09-12T15:17:36;35.70;99.90
5554;DHT22;2800;49.528;8.666;2023-09-12T15:20:02;36.60;99.90
5554;DHT22;2800;49.528;8.666;2023-09-12T15:22:30;36.80;99.90
5554;DHT22;2800;49.528;8.666;2023-09-12T15:24:56;37.10;99.90
5554;DHT22;2800;49.528;8.666;2023-09-12T15:27:22;37.20;99.90
5554;DHT22;2800;49.528;8.666;2023-09-12T15:29:47;37.60;99.90
5554;DHT22;2800;49.528;8.666;2023-09-12T15:32:13;37.30;99.90
5554;DHT22;2800;49.528;8.666;2023-09-12T15:34:38;37.70;99.90
5554;DHT22;2800;49.528;8.666;2023-09-12T15:37:10;37.40;99.90
5554;DHT22;2800;49.528;8.666;2023-09-12T15:39:37;37.40;99.90
5554;DHT22;2800;49.528;8.666;2023-09-12T15:42:03;37.40;99.90
5554;DHT22;2800;49.528;8.666;2023-09-12T15:44:29;37.80;99.90
5554;DHT22;2800;49.528;8.666;2023-09-12T15:46:55;37.30;99.90
5554;DHT22;2800;49.528;8.666;2023-09-12T15:49:23;37.50;99.90
5554;DHT22;2800;49.528;8.666;2023-09-12T15:51:49;37.60;99.90
5554;DHT22;2800;49.528;8.666;2023-09-12T15:54:14;37.10;99.90
5554;DHT22;2800;49.528;8.666;2023-09-12T15:56:39;36.70;99.90
5554;DHT22;2800;49.528;8.666;2023-09-12T15:59:05;36.60;99.90
5554;DHT22;2800;49.528;8.666;2023-09-12T16:01:30;36.40;99.90
5554;DHT22;2800;49.528;8.666;2023-09-12T16:03:56;36.20;99.90
5554;DHT22;2800;49.528;8.666;2023-09-12T16:06:23;36.20;99.90
5554;DHT22;2800;49.528;8.666;2023-09-12T16:08:49;36.00;99.90
5554;DHT22;2800;49.528;8.666;2023-09-12T16:11:14;35.80;99.90